Time;durP1;ratioP1;P1;durP2;ratioP2;P2;SDS_P1;SDS_P2;PMS_P1;PMS_P2;Temp;Humidity;BMP_temperature;BMP_pressure;BME280_temperature;BME280_humidity;BME280_pressure;Samples;Min_cycle;Max_cycle;Signal;HPM_P1;HPM_P2
2023/01/03 00:01:24;;;;;;;7.13;2.13;;;5.90;99.90;;;;;;5051113;28;20779;-70
2023/01/03 00:03:52;;;;;;;2.13;1.93;;;5.90;99.90;;;;;;5039273;28;20405;-70
2023/01/03 00:06:21;;;;;;;2.40;2.30;;;5.90;99.90;;;;;;5040648;28;20479;-72
2023/01/03 00:08:47;;;;;;;3.33;2.50;;;5.90;99.90;;;;;;5039612;28;20398;-69
2023/01/03 00:11:15;;;;;;;5.90;2.37;;;5.90;99.90;;;;;;5039526;28;20894;-69
2023/01/03 00:13:41;;;;;;;8.00;2.43;;;5.80;99.90;;;;;;5039246;28;20512;-72
2023/01/03 00:16:15;;;;;;;8.97;2.47;;;5.80;99.90;;;;;;5045734;28;20420;-71
2023/01/03 00:18:41;;;;;;;5.40;2.60;;;5.80;99.90;;;;;;5057808;28;20960;-73
2023/01/03 00:21:06;;;;;;;6.10;2.50;;;5.80;99.90;;;;;;5050674;28;20519;-70
2023/01/03 00:23:32;;;;;;;7.63;3.23;;;5.80;99.90;;;;;;5039421;28;20182;-72
2023/01/03 00:25:58;;;;;;;4.00;1.70;;;5.90;99.90;;;;;;5042239;28;20228;-70
2023/01/03 00:28:23;;;;;;;2.80;2.23;;;5.90;99.90;;;;;;5039497;28;20179;-72
2023/01/03 00:30:49;;;;;;;8.20;2.73;;;6.00;99.90;;;;;;5039491;28;20195;-73
2023/01/03 00:33:15;;;;;;;2.27;2.17;;;6.00;99.90;;;;;;5039282;28;20533;-72
2023/01/03 00:35:40;;;;;;;2.80;1.87;;;6.00;99.90;;;;;;5039553;28;20194;-70
2023/01/03 00:38:06;;;;;;;8.37;2.23;;;6.00;99.90;;;;;;5057428;28;20661;-72
2023/01/03 00:40:32;;;;;;;3.47;1.80;;;5.90;99.90;;;;;;5054032;28;20175;-71
2023/01/03 00:45:42;;;;;;;3.10;2.10;;;5.90;99.90;;;;;;5057247;28;20455;-72
2023/01/03 00:48:07;;;;;;;2.70;1.83;;;5.90;99.90;;;;;;5059166;28;20401;-72
2023/01/03 00:50:36;;;;;;;4.17;1.93;;;5.90;99.90;;;;;;5055141;28;20191;-72
2023/01/03 00:53:02;;;;;;;3.73;2.03;;;5.80;99.90;;;;;;5039013;28;20700;-71
2023/01/03 00:55:27;;;;;;;2.50;2.00;;;5.80;99.90;;;;;;5049706;28;20523;-72
2023/01/03 00:57:53;;;;;;;7.33;1.90;;;5.80;99.90;;;;;;5059025;28;20169;-70
2023/01/03 01:00:19;;;;;;;13.80;2.80;;;5.90;99.90;;;;;;5047945;28;20257;-71
2023/01/03 01:02:45;;;;;;;7.07;1.97;;;5.80;99.90;;;;;;5039071;28;20176;-72
2023/01/03 01:05:10;;;;;;;2.00;1.90;;;5.80;99.90;;;;;;5043846;28;20614;-70
2023/01/03 01:07:36;;;;;;;3.80;2.40;;;5.80;99.90;;;;;;5055819;28;20253;-70
2023/01/03 01:10:02;;;;;;;2.07;1.87;;;5.70;99.90;;;;;;5048712;28;20170;-72
2023/01/03 01:12:27;;;;;;;6.10;2.10;;;5.70;99.90;;;;;;5035482;28;20660;-71
2023/01/03 01:14:53;;;;;;;6.10;2.10;;;5.70;99.90;;;;;;5038971;28;20283;-72
2023/01/03 01:17:19;;;;;;;9.77;2.80;;;5.70;99.90;;;;;;5054395;28;20178;-73
2023/01/03 01:19:45;;;;;;;13.80;2.60;;;5.60;99.90;;;;;;5051245;28;20760;-72
2023/01/03 01:22:11;;;;;;;7.87;2.70;;;5.60;99.90;;;;;;5055598;28;20173;-70
2023/01/03 01:24:37;;;;;;;7.97;2.50;;;5.50;99.90;;;;;;5049660;28;20239;-70
2023/01/03 01:27:03;;;;;;;5.47;1.83;;;5.50;99.90;;;;;;5046155;28;20444;-70
2023/01/03 01:29:29;;;;;;;5.90;1.87;;;5.50;99.90;;;;;;5035515;28;20410;-72
2023/01/03 01:31:55;;;;;;;3.40;2.07;;;5.60;99.90;;;;;;5036253;28;20461;-72
2023/01/03 01:34:21;;;;;;;7.83;1.90;;;5.50;99.90;;;;;;5053661;28;20194;-72
2023/01/03 01:36:47;;;;;;;6.93;2.37;;;5.50;99.90;;;;;;5054396;28;20897;-73
2023/01/03 01:39:18;;;;;;;15.40;2.13;;;5.50;99.90;;;;;;5035294;28;20414;-73
2023/01/03 01:45:00;;;;;;;2.10;2.00;;;5.50;99.90;;;;;;5034006;28;20460;-72
2023/01/03 01:47:44;;;;;;;4.10;2.30;;;5.50;99.90;;;;;;5035166;28;20408;-70
2023/01/03 01:50:30;;;;;;;3.40;1.60;;;5.40;99.90;;;;;;5036349;28;20408;-70
2023/01/03 01:53:14;;;;;;;4.30;2.00;;;5.40;98.10;;;;;;5053526;28;20482;-72
2023/01/03 01:55:45;;;;;;;5.23;2.17;;;5.50;99.90;;;;;;5048483;28;20445;-70
2023/01/03 01:58:11;;;;;;;5.30;2.00;;;5.50;99.90;;;;;;5035014;28;20405;-72
2023/01/03 02:00:38;;;;;;;7.70;3.00;;;5.50;99.90;;;;;;5038354;28;20419;-72
2023/01/03 02:03:04;;;;;;;10.37;2.07;;;5.50;99.90;;;;;;5054656;28;20408;-73
2023/01/03 02:05:32;;;;;;;5.87;2.10;;;5.60;99.50;;;;;;5051190;28;20442;-73
2023/01/03 02:07:59;;;;;;;5.60;2.20;;;5.50;97.00;;;;;;5034707;28;20404;-70
2023/01/03 02:10:54;;;;;;;6.93;2.47;;;5.50;97.30;;;;;;5034688;28;20423;-69
2023/01/03 02:13:43;;;;;;;5.00;2.00;;;5.50;98.40;;;;;;5053503;28;20805;-73
2023/01/03 02:16:31;;;;;;;5.43;2.20;;;5.60;99.90;;;;;;5050978;28;20431;-74
2023/01/03 02:18:56;;;;;;;5.30;1.63;;;5.60;97.50;;;;;;5054349;28;21016;-71
2023/01/03 02:22:08;;;;;;;5.07;2.10;;;5.70;99.90;;;;;;5041959;28;20480;-71
2023/01/03 02:25:11;;;;;;;5.73;2.60;;;5.60;99.70;;;;;;5033482;28;20619;-71
2023/01/03 02:28:14;;;;;;;8.70;3.33;;;5.60;99.90;;;;;;5034442;28;20970;-71
2023/01/03 02:30:46;;;;;;;4.90;2.50;;;5.60;99.90;;;;;;5036384;28;20461;-72
2023/01/03 02:33:30;;;;;;;2.20;1.90;;;5.70;99.90;;;;;;5034155;28;20550;-72
2023/01/03 02:36:05;;;;;;;2.10;2.00;;;5.70;99.90;;;;;;5032363;28;20441;-72
2023/01/03 02:38:38;;;;;;;7.43;3.30;;;5.60;99.90;;;;;;5034138;28;20400;-70
2023/01/03 02:41:37;;;;;;;6.30;1.80;;;5.60;99.90;;;;;;5045121;28;20770;-73
2023/01/03 02:44:32;;;;;;;2.77;2.57;;;5.50;99.90;;;;;;5053847;28;20448;-72
2023/01/03 02:47:08;;;;;;;7.83;2.27;;;5.50;99.90;;;;;;5035390;28;20425;-72
2023/01/03 02:49:45;;;;;;;10.00;2.13;;;5.40;99.90;;;;;;5033383;28;20417;-72
2023/01/03 02:52:15;;;;;;;2.70;1.63;;;5.40;99.90;;;;;;5053061;28;20505;-72
2023/01/03 02:55:04;;;;;;;3.43;1.67;;;5.40;99.90;;;;;;5052941;28;20429;-73
2023/01/03 02:57:41;;;;;;;3.40;1.70;;;5.40;99.90;;;;;;5033739;28;20406;-72
2023/01/03 03:00:15;;;;;;;8.53;2.43;;;5.40;99.90;;;;;;5034893;28;20403;-74
2023/01/03 03:02:48;;;;;;;7.43;2.30;;;5.40;99.90;;;;;;5053824;28;20405;-71
2023/01/03 03:05:23;;;;;;;2.40;2.17;;;5.40;99.90;;;;;;5050450;28;20487;-71
2023/01/03 03:07:49;;;;;;;7.50;2.37;;;5.40;99.90;;;;;;5033161;28;20393;-72
2023/01/03 03:13:14;;;;;;;5.93;2.10;;;5.40;99.90;;;;;;5053343;28;20403;-73
2023/01/03 03:16:18;;;;;;;4.23;2.50;;;5.30;99.90;;;;;;5047946;28;20440;-74
2023/01/03 03:19:00;;;;;;;10.03;2.10;;;5.30;99.90;;;;;;5033557;28;20407;-70
2023/01/03 03:30:00;;;;;;;6.53;3.40;;;5.20;99.90;;;;;;5033313;28;20454;-70
2023/01/03 03:32:29;;;;;;;4.70;2.30;;;5.10;99.90;;;;;;5033396;28;20464;-71
2023/01/03 03:34:58;;;;;;;2.33;2.13;;;5.10;99.90;;;;;;5032329;28;20488;-72
2023/01/03 03:37:26;;;;;;;5.80;1.77;;;5.10;99.90;;;;;;5041835;28;20413;-73
2023/01/03 03:45:43;;;;;;;4.97;2.13;;;5.10;99.90;;;;;;5039208;28;20987;-72
2023/01/03 03:48:20;;;;;;;8.90;2.57;;;5.00;99.90;;;;;;5053054;28;20451;-71
2023/01/03 03:50:51;;;;;;;6.43;2.17;;;5.00;99.90;;;;;;5043486;28;20457;-70
2023/01/03 03:53:21;;;;;;;6.70;2.60;;;5.00;99.90;;;;;;5033037;28;20405;-73
2023/01/03 03:55:56;;;;;;;5.63;2.13;;;5.00;99.90;;;;;;5040402;28;20664;-71
2023/01/03 03:58:52;;;;;;;3.77;1.93;;;4.90;99.90;;;;;;5051619;28;20428;-71
2023/01/03 04:01:20;;;;;;;4.13;3.00;;;4.90;99.90;;;;;;5039867;28;20783;-73
2023/01/03 04:03:48;;;;;;;8.20;2.23;;;4.90;99.90;;;;;;5032190;28;20419;-71
2023/01/03 04:06:31;;;;;;;11.37;2.50;;;4.90;99.90;;;;;;5043100;28;20516;-72
2023/01/03 04:08:57;;;;;;;3.07;2.37;;;5.00;99.90;;;;;;5052773;28;20430;-70
2023/01/03 04:11:23;;;;;;;4.07;2.47;;;4.90;99.90;;;;;;5039214;28;20460;-70
2023/01/03 04:13:48;;;;;;;4.07;2.10;;;4.90;99.90;;;;;;5031370;28;20945;-71
2023/01/03 04:16:14;;;;;;;8.73;2.27;;;5.00;99.90;;;;;;5042041;28;20578;-72
2023/01/03 04:18:40;;;;;;;3.47;2.30;;;4.90;99.90;;;;;;5052746;28;20550;-73
2023/01/03 04:21:05;;;;;;;6.67;2.27;;;4.90;99.90;;;;;;5043995;28;20652;-71
2023/01/03 04:23:31;;;;;;;4.17;1.90;;;4.90;99.90;;;;;;5032448;28;20243;-72
2023/01/03 04:25:57;;;;;;;4.43;2.60;;;4.90;99.90;;;;;;5037171;28;20216;-70
2023/01/03 04:28:22;;;;;;;6.13;2.80;;;4.90;99.90;;;;;;5052666;28;20180;-71
2023/01/03 04:30:48;;;;;;;7.07;2.37;;;4.90;99.90;;;;;;5047320;28;20236;-71
2023/01/03 04:33:14;;;;;;;7.90;2.70;;;4.90;99.90;;;;;;5031406;28;21158;-74
2023/01/03 04:35:40;;;;;;;4.13;2.33;;;4.90;99.90;;;;;;5034708;28;20240;-74
2023/01/03 04:38:06;;;;;;;11.33;2.20;;;4.80;99.90;;;;;;5032575;28;20181;-74
2023/01/03 04:40:37;;;;;;;4.10;2.27;;;4.80;99.90;;;;;;5034064;28;20193;-74
2023/01/03 04:45:48;;;;;;;9.27;3.20;;;4.90;99.90;;;;;;5038818;28;20516;-71
2023/01/03 04:48:13;;;;;;;5.50;2.50;;;4.90;99.90;;;;;;5036207;28;20900;-72
2023/01/03 04:50:39;;;;;;;7.13;3.47;;;4.80;99.90;;;;;;5036320;28;20506;-74
2023/01/03 04:53:06;;;;;;;5.47;2.33;;;4.70;99.90;;;;;;5035090;28;20209;-74
2023/01/03 04:55:31;;;;;;;3.07;2.77;;;4.70;99.90;;;;;;5042843;28;20764;-74
2023/01/03 04:57:57;;;;;;;4.43;3.20;;;4.70;99.90;;;;;;5055398;28;20418;-71
2023/01/03 05:00:23;;;;;;;7.00;2.90;;;4.70;99.90;;;;;;5049542;28;20194;-74
2023/01/03 05:02:49;;;;;;;4.83;2.37;;;4.60;99.90;;;;;;5036068;28;20612;-71
2023/01/03 05:05:14;;;;;;;4.60;2.70;;;4.60;99.90;;;;;;5039112;28;20202;-71
2023/01/03 05:07:40;;;;;;;3.07;2.20;;;4.60;99.90;;;;;;5054542;28;20188;-73
2023/01/03 05:10:06;;;;;;;4.10;2.83;;;4.60;99.90;;;;;;5052854;28;20175;-72
2023/01/03 05:12:32;;;;;;;4.50;2.83;;;4.60;99.90;;;;;;5035664;28;20203;-74
2023/01/03 05:14:57;;;;;;;2.37;2.17;;;4.50;99.90;;;;;;5034900;28;20922;-74
2023/01/03 05:17:23;;;;;;;3.60;2.33;;;4.50;99.90;;;;;;5055685;28;20168;-71
2023/01/03 05:28:02;;;;;;;4.13;2.73;;;4.50;99.90;;;;;;5055448;28;20424;-75
2023/01/03 05:30:27;;;;;;;6.73;2.80;;;4.50;99.90;;;;;;5042050;28;20434;-74
2023/01/03 05:32:53;;;;;;;6.60;2.60;;;4.40;99.90;;;;;;5055109;28;20404;-73
2023/01/03 05:35:19;;;;;;;2.57;2.40;;;4.40;99.90;;;;;;5053954;28;20183;-74
2023/01/03 05:37:45;;;;;;;5.73;2.90;;;4.40;99.90;;;;;;5054368;28;20167;-72
2023/01/03 05:40:11;;;;;;;11.60;2.67;;;4.30;99.90;;;;;;5055179;28;20177;-73
2023/01/03 05:42:37;;;;;;;3.40;2.43;;;4.30;99.90;;;;;;5041903;28;20418;-71
2023/01/03 05:45:03;;;;;;;7.00;2.70;;;4.30;99.90;;;;;;5040184;28;20460;-72
2023/01/03 05:47:29;;;;;;;5.00;2.93;;;4.40;99.90;;;;;;5055217;28;20177;-74
2023/01/03 05:49:54;;;;;;;2.40;2.27;;;4.30;99.90;;;;;;5049532;28;20853;-74
2023/01/03 05:52:21;;;;;;;3.53;2.70;;;4.30;99.90;;;;;;5034524;28;20204;-72
2023/01/03 05:54:47;;;;;;;4.90;3.10;;;4.30;99.90;;;;;;5036865;28;20191;-73
2023/01/03 05:57:12;;;;;;;10.70;2.80;;;4.30;99.90;;;;;;5054826;28;20407;-73
2023/01/03 05:59:38;;;;;;;3.30;2.83;;;4.30;99.90;;;;;;5053109;28;20170;-71
2023/01/03 06:02:04;;;;;;;5.10;3.00;;;4.30;99.90;;;;;;5033977;28;20624;-71
2023/01/03 06:04:29;;;;;;;11.80;3.53;;;4.20;99.90;;;;;;5034800;28;20250;-72
2023/01/03 06:06:55;;;;;;;3.50;2.53;;;4.30;99.90;;;;;;5034738;28;20175;-73
2023/01/03 06:09:21;;;;;;;4.70;3.27;;;4.20;99.90;;;;;;5034522;28;20274;-73
2023/01/03 06:11:46;;;;;;;6.93;3.40;;;4.20;99.90;;;;;;5054012;28;20198;-72
2023/01/03 06:14:12;;;;;;;4.73;3.00;;;4.20;99.90;;;;;;5054201;28;20680;-74
2023/01/03 06:19:22;;;;;;;4.33;3.03;;;4.10;99.90;;;;;;5034858;28;20170;-71
2023/01/03 06:21:48;;;;;;;5.10;2.63;;;4.10;99.90;;;;;;5053554;28;20425;-73
2023/01/03 06:24:13;;;;;;;7.40;2.53;;;4.10;99.90;;;;;;5054064;28;20671;-74
2023/01/03 06:26:39;;;;;;;10.63;3.20;;;4.10;99.90;;;;;;5035393;28;20281;-72
2023/01/03 06:29:05;;;;;;;5.40;3.90;;;4.10;99.90;;;;;;5034060;28;20167;-73
2023/01/03 06:31:31;;;;;;;3.43;3.10;;;4.10;99.90;;;;;;5050135;28;20285;-73
2023/01/03 06:33:57;;;;;;;12.20;3.17;;;4.00;99.90;;;;;;5054096;28;20500;-74
2023/01/03 06:36:24;;;;;;;3.20;3.00;;;3.90;99.90;;;;;;5037425;28;20419;-73
2023/01/03 06:38:51;;;;;;;3.40;3.10;;;4.00;99.90;;;;;;5034257;28;20160;-73
2023/01/03 06:41:17;;;;;;;3.10;2.80;;;3.90;99.90;;;;;;5046646;28;20512;-73
2023/01/03 06:43:43;;;;;;;4.67;3.13;;;3.90;99.90;;;;;;5053160;28;20413;-73
2023/01/03 06:54:28;;;;;;;10.63;3.00;;;4.00;99.90;;;;;;5051972;28;20407;-69
2023/01/03 06:56:55;;;;;;;7.67;3.73;;;4.00;99.90;;;;;;5033917;28;20417;-70
2023/01/03 06:59:21;;;;;;;6.80;3.83;;;4.00;99.90;;;;;;5035411;28;20391;-73
2023/01/03 07:01:49;;;;;;;3.47;3.17;;;4.00;99.90;;;;;;5034080;28;20919;-70
2023/01/03 07:04:16;;;;;;;7.23;3.33;;;3.90;99.90;;;;;;5033020;28;20423;-72
2023/01/03 07:06:43;;;;;;;10.33;4.30;;;3.90;99.90;;;;;;5033263;28;20403;-70
2023/01/03 07:09:09;;;;;;;4.13;2.77;;;3.90;99.90;;;;;;5033587;28;20426;-72
2023/01/03 07:11:36;;;;;;;5.67;3.73;;;3.80;99.90;;;;;;5052614;28;20959;-72
2023/01/03 07:14:02;;;;;;;9.70;3.10;;;3.80;99.90;;;;;;5051631;28;20826;-74
2023/01/03 07:16:42;;;;;;;3.27;3.03;;;3.80;99.90;;;;;;5050261;28;20457;-72
2023/01/03 07:19:11;;;;;;;3.63;3.13;;;3.70;99.90;;;;;;5052297;28;20398;-72
2023/01/03 07:21:37;;;;;;;3.90;2.93;;;3.80;99.90;;;;;;5053224;28;20473;-71
2023/01/03 07:24:04;;;;;;;4.63;3.37;;;3.80;99.90;;;;;;5052285;28;20433;-73
2023/01/03 07:26:32;;;;;;;7.70;3.10;;;3.80;99.90;;;;;;5032582;28;20215;-74
2023/01/03 07:28:59;;;;;;;4.20;2.93;;;3.70;99.90;;;;;;5033263;28;20437;-71
2023/01/03 07:31:25;;;;;;;6.17;3.37;;;3.80;99.90;;;;;;5052470;28;21036;-71
2023/01/03 07:33:52;;;;;;;5.10;3.53;;;3.80;99.90;;;;;;5053080;28;20874;-73
2023/01/03 07:36:18;;;;;;;7.30;2.80;;;3.80;99.90;;;;;;5033406;28;20422;-71
2023/01/03 07:38:45;;;;;;;2.90;2.60;;;3.80;99.90;;;;;;5033365;28;20390;-71
2023/01/03 07:41:12;;;;;;;5.23;2.97;;;3.80;99.90;;;;;;5049354;28;20422;-71
2023/01/03 07:43:40;;;;;;;6.30;3.03;;;3.80;99.90;;;;;;5048815;28;21026;-72
2023/01/03 07:46:21;;;;;;;4.50;2.77;;;3.80;99.90;;;;;;5031266;28;20529;-71
2023/01/03 07:48:49;;;;;;;3.83;2.70;;;3.80;99.90;;;;;;5037384;28;20417;-71
2023/01/03 07:51:17;;;;;;;3.20;3.00;;;3.80;99.90;;;;;;5050119;28;20481;-71
2023/01/03 07:53:43;;;;;;;4.87;3.43;;;3.70;99.90;;;;;;5032348;28;20394;-73
2023/01/03 07:56:11;;;;;;;4.10;2.80;;;3.70;99.90;;;;;;5032964;28;20400;-74
2023/01/03 07:58:39;;;;;;;4.43;3.20;;;3.70;99.90;;;;;;5052868;28;20413;-71
2023/01/03 08:01:16;;;;;;;4.90;3.50;;;3.70;99.90;;;;;;5052639;28;20425;-74
2023/01/03 08:03:43;;;;;;;3.37;3.07;;;3.70;99.90;;;;;;5032690;28;20456;-73
2023/01/03 08:06:12;;;;;;;10.00;3.23;;;3.70;99.90;;;;;;5043409;28;20429;-74
2023/01/03 08:08:38;;;;;;;9.97;2.97;;;3.70;99.90;;;;;;5052738;28;20432;-72
2023/01/03 08:13:48;;;;;;;6.10;3.30;;;3.80;99.90;;;;;;5033271;28;20397;-73
2023/01/03 08:16:16;;;;;;;2.97;2.77;;;3.70;99.90;;;;;;5036250;28;20884;-72
2023/01/03 08:18:42;;;;;;;9.20;3.23;;;3.70;99.90;;;;;;5036941;28;20407;-71
2023/01/03 08:21:11;;;;;;;3.20;2.90;;;3.70;99.90;;;;;;5036750;28;20406;-73
2023/01/03 08:23:37;;;;;;;3.63;3.27;;;3.70;99.90;;;;;;5036686;28;20391;-73
2023/01/03 08:26:09;;;;;;;5.40;3.77;;;3.70;99.90;;;;;;5035947;28;20426;-71
2023/01/03 08:28:34;;;;;;;3.20;2.63;;;3.70;99.90;;;;;;5036669;28;20907;-71
2023/01/03 08:31:21;;;;;;;4.23;3.20;;;3.80;99.90;;;;;;5035854;28;20444;-72
2023/01/03 08:34:08;;;;;;;5.90;3.43;;;3.70;99.90;;;;;;5038202;28;20405;-71
2023/01/03 08:36:42;;;;;;;3.70;3.00;;;3.70;99.90;;;;;;5035880;28;20404;-74
2023/01/03 08:39:15;;;;;;;12.83;3.50;;;3.80;99.90;;;;;;5035150;28;20429;-74
2023/01/03 08:41:49;;;;;;;5.10;3.20;;;3.80;99.90;;;;;;5036348;28;20406;-71
2023/01/03 08:44:15;;;;;;;4.00;3.23;;;3.80;99.90;;;;;;5034651;28;20427;-73
2023/01/03 08:46:48;;;;;;;5.87;2.70;;;3.80;99.90;;;;;;5035188;28;20431;-74
2023/01/03 08:49:14;;;;;;;4.47;3.10;;;3.80;99.90;;;;;;5036263;28;20174;-74
2023/01/03 08:51:40;;;;;;;3.33;3.03;;;3.90;99.90;;;;;;5036201;28;20463;-74
2023/01/03 08:54:06;;;;;;;9.10;4.17;;;3.90;99.90;;;;;;5035950;28;20899;-72
2023/01/03 08:56:33;;;;;;;6.43;3.60;;;3.80;99.90;;;;;;5035654;28;20166;-74
2023/01/03 08:58:59;;;;;;;4.50;2.87;;;3.90;99.90;;;;;;5036029;28;20740;-74
2023/01/03 09:01:25;;;;;;;3.00;2.80;;;3.90;99.90;;;;;;5034821;28;20406;-74
2023/01/03 09:03:51;;;;;;;11.80;4.00;;;3.90;99.90;;;;;;5035850;28;20931;-74
2023/01/03 09:06:17;;;;;;;4.27;3.60;;;3.90;99.90;;;;;;5033307;28;20426;-73
2023/01/03 09:08:43;;;;;;;4.10;3.30;;;3.90;99.90;;;;;;5036058;28;20411;-74
2023/01/03 09:11:09;;;;;;;5.93;3.20;;;3.90;99.90;;;;;;5035698;28;20446;-73
2023/01/03 09:13:36;;;;;;;4.23;3.63;;;3.90;99.90;;;;;;5035817;28;20482;-73
2023/01/03 09:16:03;;;;;;;5.80;3.40;;;3.90;99.90;;;;;;5035081;28;20419;-73
2023/01/03 09:18:28;;;;;;;10.30;3.60;;;4.00;99.90;;;;;;5035614;28;20445;-73
2023/01/03 09:20:55;;;;;;;8.30;3.53;;;4.00;99.90;;;;;;5035616;28;20818;-74
2023/01/03 09:23:20;;;;;;;4.33;3.83;;;4.00;99.90;;;;;;5034089;28;20205;-74
2023/01/03 09:25:46;;;;;;;5.33;3.30;;;4.10;99.90;;;;;;5033805;28;20459;-71
2023/01/03 09:28:12;;;;;;;4.47;3.93;;;4.10;99.90;;;;;;5034256;28;20229;-72
2023/01/03 09:30:38;;;;;;;3.75;3.30;;;4.10;99.90;;;;;;5035370;28;20164;-71
2023/01/03 09:33:04;;;;;;;3.57;3.30;;;4.10;99.90;;;;;;5035404;28;20887;-72
2023/01/03 09:35:30;;;;;;;8.33;3.60;;;4.20;99.90;;;;;;5034744;28;20184;-73
2023/01/03 09:37:56;;;;;;;8.00;4.40;;;4.30;99.90;;;;;;5035360;28;20171;-73
2023/01/03 09:40:23;;;;;;;4.20;3.70;;;4.40;99.80;;;;;;5035121;28;20405;-71
2023/01/03 09:45:34;;;;;;;6.40;3.13;;;4.50;97.00;;;;;;5034512;28;20853;-74
2023/01/03 09:48:02;;;;;;;9.93;3.90;;;4.50;90.20;;;;;;5035246;28;20744;-71
2023/01/03 09:50:32;;;;;;;8.93;3.40;;;4.60;91.10;;;;;;5035017;28;20414;-71
2023/01/03 10:04:31;;;;;;;2.70;2.50;;;5.10;28.20;;;;;;5033889;28;20510;-74
2023/01/03 10:07:34;;;;;;;2.80;2.50;;;5.20;20.60;;;;;;5034758;28;20759;-74
2023/01/03 10:10:16;;;;;;;3.70;3.40;;;5.20;6.00;;;;;;5033801;28;20747;-74
2023/01/03 10:13:07;;;;;;;2.60;2.13;;;5.30;1.00;;;;;;5034824;28;20464;-72
2023/01/03 10:15:42;;;;;;;5.43;3.03;;;5.30;1.00;;;;;;5033985;28;20504;-72
2023/01/03 10:18:26;;;;;;;4.50;2.37;;;5.30;1.00;;;;;;5034649;28;20489;-72
2023/01/03 10:21:12;;;;;;;6.23;3.50;;;5.40;1.00;;;;;;5033435;28;20425;-72
2023/01/03 10:23:38;;;;;;;3.13;2.37;;;5.50;1.00;;;;;;5033885;28;20467;-72
2023/01/03 10:26:10;;;;;;;18.90;3.00;;;5.60;1.00;;;;;;5033789;28;20822;-72
2023/01/03 10:28:40;;;;;;;4.77;2.30;;;5.70;1.00;;;;;;5034231;28;20906;-73
2023/01/03 10:31:29;;;;;;;11.20;3.67;;;5.70;1.00;;;;;;5034234;28;20490;-73
2023/01/03 10:33:56;;;;;;;3.77;2.40;;;5.70;1.00;;;;;;5034345;28;20804;-71
2023/01/03 10:36:22;;;;;;;3.27;2.40;;;5.80;1.00;;;;;;5033626;28;20398;-73
2023/01/03 10:39:00;;;;;;;2.70;2.50;;;5.70;1.00;;;;;;5033174;28;20871;-73
2023/01/03 10:41:45;;;;;;;4.10;3.70;;;5.70;1.00;;;;;;5033694;28;20217;-71
2023/01/03 10:44:29;;;;;;;6.37;2.80;;;5.80;1.00;;;;;;5033891;28;20430;-70
2023/01/03 10:46:59;;;;;;;3.77;2.47;;;5.80;1.00;;;;;;5033929;28;20933;-72
2023/01/03 10:49:29;;;;;;;4.27;2.37;;;6.00;1.00;;;;;;5034250;28;20481;-71
2023/01/03 10:52:02;;;;;;;6.97;3.23;;;6.10;1.00;;;;;;5033917;28;20449;-72
2023/01/03 10:55:02;;;;;;;4.00;2.17;;;6.20;1.00;;;;;;5033141;28;20533;-70
2023/01/03 10:57:37;;;;;;;3.67;2.90;;;6.30;1.00;;;;;;5032591;28;20422;-71
2023/01/03 11:00:31;;;;;;;4.60;2.87;;;6.40;1.00;;;;;;5033360;28;20410;-69
2023/01/03 11:03:22;;;;;;;5.07;2.53;;;6.30;1.00;;;;;;5033618;28;20964;-71
2023/01/03 11:06:07;;;;;;;6.90;2.80;;;6.40;1.00;;;;;;5032901;28;20463;-71
2023/01/03 11:08:45;;;;;;;2.10;2.00;;;6.40;1.00;;;;;;5033680;28;20795;-70
2023/01/03 11:11:43;;;;;;;5.80;2.70;;;6.40;1.00;;;;;;5033418;28;20485;-71
2023/01/03 11:14:17;;;;;;;2.30;2.10;;;6.40;99.90;;;;;;5043033;28;20989;-71
2023/01/03 11:16:43;;;;;;;7.23;2.30;;;6.40;99.90;;;;;;5033006;28;20420;-70
2023/01/03 11:19:16;;;;;;;7.67;1.93;;;6.40;99.90;;;;;;5033359;28;20414;-71
2023/01/03 11:21:45;;;;;;;2.00;1.90;;;6.30;99.90;;;;;;5033488;28;20506;-72
2023/01/03 11:24:31;;;;;;;7.23;1.80;;;6.30;99.90;;;;;;5033242;28;20444;-72
2023/01/03 11:27:39;;;;;;;2.70;2.33;;;6.20;99.90;;;;;;5033296;28;20501;-70
2023/01/03 11:30:14;;;;;;;2.13;1.80;;;6.20;99.90;;;;;;5035552;28;20429;-70
2023/01/03 11:33:03;;;;;;;7.20;2.03;;;6.20;99.90;;;;;;5032618;28;20615;-71
2023/01/03 11:35:58;;;;;;;2.57;2.37;;;6.20;99.90;;;;;;5032492;28;20434;-72
2023/01/03 11:39:17;;;;;;;3.43;2.37;;;6.20;99.90;;;;;;5033186;28;20403;-72
2023/01/03 11:42:13;;;;;;;2.47;2.23;;;6.20;99.90;;;;;;5050947;28;20743;-71
2023/01/03 11:44:44;;;;;;;2.93;2.70;;;6.20;99.90;;;;;;5050150;28;20425;-70
2023/01/03 11:47:49;;;;;;;8.30;2.50;;;6.20;99.90;;;;;;5031551;28;20429;-70
2023/01/03 11:50:53;;;;;;;4.60;2.33;;;6.10;99.90;;;;;;5032193;28;20412;-72
2023/01/03 11:53:54;;;;;;;3.10;2.77;;;6.00;99.90;;;;;;5033041;28;20922;-72
2023/01/03 11:56:28;;;;;;;3.07;2.87;;;6.00;99.90;;;;;;5031164;28;20414;-72
2023/01/03 11:59:08;;;;;;;4.93;2.50;;;6.00;99.90;;;;;;5033099;28;20399;-73
2023/01/03 12:02:11;;;;;;;2.97;2.77;;;6.10;99.90;;;;;;5032885;28;20798;-71
2023/01/03 12:05:14;;;;;;;7.83;3.70;;;6.10;99.90;;;;;;5030993;28;20783;-73
2023/01/03 12:08:17;;;;;;;4.93;3.13;;;6.00;99.90;;;;;;5032556;28;20406;-70
2023/01/03 12:10:43;;;;;;;3.50;3.23;;;6.00;99.90;;;;;;5039493;28;20899;-71
2023/01/03 12:13:50;;;;;;;3.33;3.03;;;5.90;99.90;;;;;;5032868;28;20451;-70
2023/01/03 12:16:44;;;;;;;6.70;3.20;;;5.90;99.90;;;;;;5032241;28;20172;-72
2023/01/03 12:19:18;;;;;;;6.43;3.63;;;5.90;99.90;;;;;;5032797;28;20432;-70
2023/01/03 12:21:52;;;;;;;6.73;3.23;;;5.80;99.90;;;;;;5032633;28;20413;-73
2023/01/03 12:24:46;;;;;;;4.80;3.00;;;5.80;99.90;;;;;;5031996;28;20429;-73
2023/01/03 12:27:22;;;;;;;10.53;3.10;;;5.80;99.90;;;;;;5032081;28;20883;-70
2023/01/03 12:30:06;;;;;;;6.83;3.23;;;5.80;99.90;;;;;;5032569;28;20502;-72
2023/01/03 12:33:06;;;;;;;3.43;3.17;;;5.80;99.90;;;;;;5032547;28;20506;-72
2023/01/03 12:36:00;;;;;;;4.67;3.50;;;5.70;99.90;;;;;;5031911;28;20512;-71
2023/01/03 12:38:35;;;;;;;8.70;3.53;;;5.80;99.90;;;;;;5032609;28;20427;-71
2023/01/03 12:41:16;;;;;;;3.37;2.87;;;5.70;99.90;;;;;;5032583;28;20452;-72
2023/01/03 12:43:56;;;;;;;4.13;3.20;;;5.80;99.90;;;;;;5031027;28;20472;-72
2023/01/03 12:46:36;;;;;;;4.73;3.47;;;5.90;99.90;;;;;;5031146;28;20430;-70
2023/01/03 12:49:20;;;;;;;4.37;2.53;;;5.80;99.90;;;;;;5032552;28;20764;-72
2023/01/03 12:51:45;;;;;;;3.80;3.20;;;5.90;99.90;;;;;;5032364;28;20523;-72
2023/01/03 12:54:25;;;;;;;5.33;3.37;;;5.90;99.90;;;;;;5030899;28;20449;-72
2023/01/03 12:57:23;;;;;;;3.73;3.43;;;5.80;99.90;;;;;;5032598;28;20164;-71
2023/01/03 13:00:22;;;;;;;4.67;3.40;;;5.80;99.90;;;;;;5032402;28;20444;-72
2023/01/03 13:02:57;;;;;;;4.70;3.80;;;5.80;99.90;;;;;;5039369;28;20419;-72
2023/01/03 13:05:43;;;;;;;5.30;3.33;;;5.80;99.90;;;;;;5035022;28;20483;-72
2023/01/03 13:08:31;;;;;;;9.07;4.40;;;5.90;99.90;;;;;;5035967;28;20456;-72
2023/01/03 13:11:04;;;;;;;3.80;3.03;;;5.90;99.90;;;;;;5035731;28;20406;-71
2023/01/03 13:13:32;;;;;;;5.27;3.67;;;5.90;99.90;;;;;;5035940;28;20441;-71
2023/01/03 13:15:57;;;;;;;3.60;3.13;;;5.90;99.90;;;;;;5035101;28;20513;-73
2023/01/03 13:18:23;;;;;;;3.30;3.10;;;6.00;99.90;;;;;;5035721;28;20494;-71
2023/01/03 13:20:51;;;;;;;4.80;4.50;;;6.00;99.90;;;;;;5034180;28;20595;-71
2023/01/03 13:23:20;;;;;;;4.83;4.37;;;6.00;99.90;;;;;;5035610;28;20237;-72
2023/01/03 13:26:09;;;;;;;5.83;4.70;;;5.90;99.90;;;;;;5034870;28;20426;-72
2023/01/03 13:28:41;;;;;;;3.80;3.50;;;5.90;99.90;;;;;;5035392;28;20410;-72
2023/01/03 13:31:18;;;;;;;5.30;3.90;;;6.00;99.90;;;;;;5035442;28;20454;-72
2023/01/03 13:33:55;;;;;;;8.23;3.20;;;6.00;99.90;;;;;;5035346;28;20409;-72
2023/01/03 13:36:22;;;;;;;3.97;3.67;;;5.90;99.90;;;;;;5033346;28;20406;-72
2023/01/03 13:38:48;;;;;;;5.60;3.47;;;5.90;99.90;;;;;;5034834;28;20417;-71
2023/01/03 13:41:26;;;;;;;5.77;4.10;;;5.90;99.90;;;;;;5035344;28;20420;-73
2023/01/03 13:43:53;;;;;;;4.97;3.67;;;5.90;99.90;;;;;;5035207;28;20619;-72
2023/01/03 13:46:31;;;;;;;3.43;3.13;;;5.90;99.90;;;;;;5033330;28;20449;-73
2023/01/03 13:49:03;;;;;;;3.90;3.23;;;5.90;99.90;;;;;;5035192;28;20498;-72
2023/01/03 13:51:38;;;;;;;5.43;3.40;;;5.90;99.90;;;;;;5033802;28;20958;-72
2023/01/03 13:54:12;;;;;;;5.23;3.30;;;5.90;99.90;;;;;;5035041;28;20417;-73
2023/01/03 13:56:44;;;;;;;5.67;3.77;;;5.90;99.90;;;;;;5032897;28;20898;-72
2023/01/03 13:59:24;;;;;;;5.57;4.13;;;5.80;99.90;;;;;;5034949;28;20875;-72
2023/01/03 14:01:53;;;;;;;3.97;3.20;;;5.80;99.90;;;;;;5034953;28;20846;-71
2023/01/03 14:04:45;;;;;;;4.30;3.67;;;5.80;99.90;;;;;;5034088;28;20442;-73
2023/01/03 14:07:42;;;;;;;4.00;3.57;;;5.80;99.90;;;;;;5034840;28;20410;-72
2023/01/03 14:10:21;;;;;;;4.97;4.47;;;5.70;99.90;;;;;;5034890;28;20410;-70
2023/01/03 14:13:05;;;;;;;5.43;3.77;;;5.70;99.90;;;;;;5034511;28;20464;-72
2023/01/03 14:15:32;;;;;;;4.00;3.60;;;5.70;99.90;;;;;;5033402;28;20446;-71
2023/01/03 14:18:24;;;;;;;8.13;4.53;;;5.70;99.90;;;;;;5034637;28;20922;-72
2023/01/03 14:20:53;;;;;;;3.93;3.60;;;5.70;99.90;;;;;;5035277;28;20419;-71
2023/01/03 14:23:23;;;;;;;6.73;3.70;;;5.70;99.90;;;;;;5033438;28;20422;-71
2023/01/03 14:25:49;;;;;;;7.97;3.70;;;5.60;99.90;;;;;;5033716;28;20418;-71
2023/01/03 14:28:29;;;;;;;8.47;3.83;;;5.60;99.90;;;;;;5034568;28;20473;-71
2023/01/03 14:30:55;;;;;;;11.47;4.23;;;5.60;99.90;;;;;;5034154;28;20827;-72